createdAt,value
2019-03-12T00:00:08.726Z,3.20
2019-03-12T00:02:42.929Z,3.25
2019-03-12T00:05:16.732Z,3.28
2019-03-12T00:07:50.868Z,3.30
2019-03-12T00:10:24.812Z,3.33
2019-03-12T00:12:58.594Z,3.37
2019-03-12T00:15:32.883Z,3.35
2019-03-12T00:18:06.971Z,3.39
2019-03-12T00:20:40.696Z,3.41
2019-03-12T00:23:14.913Z,3.41
2019-03-12T00:25:48.927Z,3.43
2019-03-12T00:28:23.138Z,3.44
2019-03-12T00:30:57.261Z,3.52
2019-03-12T00:33:31.129Z,3.51
2019-03-12T00:36:05.379Z,3.52
2019-03-12T00:38:38.961Z,3.52
2019-03-12T00:41:13.102Z,3.50
2019-03-12T00:43:47.475Z,3.54
2019-03-12T00:46:21.633Z,3.54
2019-03-12T00:48:54.969Z,3.55
2019-03-12T00:51:28.877Z,3.59
2019-03-12T00:54:02.841Z,3.56
2019-03-12T00:56:36.675Z,3.54
2019-03-12T00:59:09.966Z,3.55
2019-03-12T01:01:44.054Z,3.58
2019-03-12T01:04:17.893Z,3.56
2019-03-12T01:06:51.114Z,3.53
2019-03-12T01:09:25.141Z,3.49
2019-03-12T01:11:59.278Z,3.53
2019-03-12T01:14:33.016Z,3.55
2019-03-12T01:17:07.815Z,3.56
2019-03-12T01:19:41.931Z,3.58
2019-03-12T01:22:15.626Z,3.64
2019-03-12T01:24:49.848Z,3.64
2019-03-12T01:27:23.555Z,3.70
2019-03-12T01:29:56.762Z,3.72
2019-03-12T01:32:30.962Z,3.73
2019-03-12T01:35:04.661Z,3.72
2019-03-12T01:37:38.014Z,3.73
2019-03-12T01:40:12.921Z,3.75
2019-03-12T01:42:46.577Z,3.76
2019-03-12T01:45:20.696Z,3.74
2019-03-12T01:47:54.485Z,3.73
2019-03-12T01:50:28.735Z,3.74
2019-03-12T01:53:02.955Z,3.75
2019-03-12T01:55:37.058Z,3.78
2019-03-12T01:58:10.882Z,3.79
2019-03-12T02:00:44.857Z,3.81
2019-03-12T02:03:18.929Z,3.83
2019-03-12T02:05:53.138Z,3.83
2019-03-12T02:08:26.382Z,3.87
2019-03-12T02:11:00.409Z,3.87
2019-03-12T02:13:34.938Z,3.80
2019-03-12T02:16:09.051Z,3.74
2019-03-12T02:18:43.160Z,3.74
2019-03-12T02:21:17.256Z,3.71
2019-03-12T02:23:51.512Z,3.66
2019-03-12T02:26:25.612Z,3.68
2019-03-12T02:28:59.614Z,3.65
2019-03-12T02:31:33.915Z,3.60
2019-03-12T02:34:08.174Z,3.62
2019-03-12T02:36:42.244Z,3.56
2019-03-12T02:39:16.252Z,3.57
2019-03-12T02:41:50.495Z,3.57
2019-03-12T02:44:24.732Z,3.54
2019-03-12T02:46:58.814Z,3.47
2019-03-12T02:49:32.557Z,3.43
2019-03-12T02:52:06.313Z,3.35
2019-03-12T02:54:39.933Z,3.30
2019-03-12T02:57:14.127Z,3.26
2019-03-12T02:59:47.908Z,3.22
2019-03-12T03:02:22.198Z,3.16
2019-03-12T03:04:55.797Z,3.16
2019-03-12T03:07:53.338Z,3.15
2019-03-12T03:10:27.417Z,3.10
2019-03-12T03:13:00.806Z,3.07
2019-03-12T03:15:44.296Z,2.98
2019-03-12T03:18:18.019Z,2.89
2019-03-12T03:20:51.727Z,2.84
2019-03-12T03:23:25.473Z,2.79
2019-03-12T03:25:59.225Z,2.77
2019-03-12T03:28:33.347Z,2.74
2019-03-12T03:31:07.138Z,2.73
2019-03-12T03:33:41.362Z,2.72
2019-03-12T03:36:15.429Z,2.70
2019-03-12T03:38:48.639Z,2.67
2019-03-12T03:41:22.879Z,2.62
2019-03-12T03:43:57.078Z,2.59
2019-03-12T03:46:30.894Z,2.53
2019-03-12T03:49:04.624Z,2.55
2019-03-12T03:51:37.865Z,2.58
2019-03-12T03:54:11.587Z,2.64
2019-03-12T03:56:45.278Z,2.63
2019-03-12T03:59:19.331Z,2.66
2019-03-12T04:01:53.541Z,2.67
2019-03-12T04:04:27.670Z,2.74
2019-03-12T04:07:01.317Z,2.74
2019-03-12T04:09:35.119Z,2.79
2019-03-12T04:12:09.866Z,2.85
2019-03-12T04:14:44.005Z,2.89
2019-03-12T04:17:18.326Z,2.96
2019-03-12T04:19:51.582Z,2.99
2019-03-12T04:22:25.796Z,3.04
2019-03-12T04:24:59.922Z,2.98
2019-03-12T04:27:34.140Z,2.99
2019-03-12T04:30:08.233Z,2.98
2019-03-12T04:32:41.982Z,2.99
2019-03-12T04:35:17.124Z,2.95
2019-03-12T04:37:53.258Z,2.97
2019-03-12T04:40:29.419Z,2.95
2019-03-12T04:43:03.627Z,2.91
2019-03-12T04:45:37.373Z,2.75
2019-03-12T04:48:11.112Z,2.65
2019-03-12T04:50:45.282Z,2.66
2019-03-12T04:53:19.382Z,2.70
2019-03-12T04:55:53.478Z,2.71
2019-03-12T04:58:28.010Z,2.65
2019-03-12T05:01:01.295Z,2.52
2019-03-12T05:03:35.308Z,2.49
2019-03-12T05:06:09.300Z,2.53
2019-03-12T05:08:43.973Z,2.50
2019-03-12T05:11:18.167Z,2.53
2019-03-12T05:14:41.657Z,2.58
2019-03-12T05:17:34.752Z,2.55
2019-03-12T05:20:09.015Z,2.57
2019-03-12T05:22:41.981Z,2.56
2019-03-12T05:25:14.595Z,2.58
2019-03-12T05:27:47.226Z,2.50
2019-03-12T05:30:20.512Z,2.55
2019-03-12T05:32:54.664Z,2.58
2019-03-12T05:35:27.103Z,2.59
2019-03-12T05:37:59.666Z,2.60
2019-03-12T05:40:32.983Z,2.58
2019-03-12T05:43:05.935Z,2.59
2019-03-12T05:45:38.840Z,2.56
2019-03-12T05:48:11.798Z,2.57
2019-03-12T05:50:44.286Z,2.59
2019-03-12T05:53:16.903Z,2.59
2019-03-12T05:55:49.356Z,2.59
2019-03-12T05:58:22.347Z,2.58
2019-03-12T06:00:55.508Z,2.54
2019-03-12T06:03:29.261Z,2.45
2019-03-12T06:06:02.227Z,2.49
2019-03-12T06:08:34.669Z,2.55
2019-03-12T06:11:06.742Z,2.56
2019-03-12T06:13:39.644Z,2.54
2019-03-12T06:16:12.890Z,2.48
2019-03-12T06:18:45.244Z,2.55
2019-03-12T06:21:18.293Z,2.59
2019-03-12T06:23:51.674Z,2.63
2019-03-12T06:26:24.535Z,2.65
2019-03-12T06:28:56.578Z,2.69
2019-03-12T06:32:02.323Z,2.71
2019-03-12T06:34:45.079Z,2.67
2019-03-12T06:37:28.981Z,2.64
2019-03-12T06:40:30.494Z,2.65
2019-03-12T06:43:12.596Z,2.59
2019-03-12T06:46:07.460Z,2.60
2019-03-12T06:48:54.198Z,2.55
2019-03-12T06:52:03.963Z,2.58
2019-03-12T06:55:01.240Z,2.57
2019-03-12T06:57:56.669Z,2.60
2019-03-12T07:00:52.896Z,2.63
2019-03-12T07:03:43.964Z,2.68
2019-03-12T07:06:39.303Z,2.72
2019-03-12T07:09:26.262Z,2.73
2019-03-12T07:12:07.166Z,2.79
2019-03-12T07:15:02.015Z,2.78
2019-03-12T07:17:55.504Z,2.74
2019-03-12T07:20:45.959Z,2.82
2019-03-12T07:23:28.561Z,2.86
2019-03-12T07:26:24.267Z,2.87
2019-03-12T07:29:10.639Z,2.92
2019-03-12T07:32:40.454Z,2.94
2019-03-12T07:35:24.913Z,3.10
2019-03-12T07:38:07.184Z,3.15
2019-03-12T07:41:05.604Z,3.23
2019-03-12T07:43:46.680Z,3.27
2019-03-12T07:46:50.566Z,3.30
2019-03-12T07:49:42.225Z,3.37
2019-03-12T07:52:37.816Z,3.43
2019-03-12T07:55:38.616Z,3.41
2019-03-12T07:58:42.325Z,3.44
2019-03-12T08:01:39.063Z,3.48
2019-03-12T08:04:18.637Z,3.55
2019-03-12T08:07:13.235Z,3.63
2019-03-12T08:10:22.488Z,3.54
2019-03-12T08:13:26.551Z,3.62
2019-03-12T08:16:13.142Z,3.74
2019-03-12T08:19:15.388Z,3.85
2019-03-12T08:22:01.261Z,3.95
2019-03-12T08:24:56.158Z,4.00
2019-03-12T08:27:48.421Z,4.02
2019-03-12T08:30:43.600Z,3.90
2019-03-12T08:33:49.564Z,3.76
2019-03-12T08:36:36.482Z,3.88
2019-03-12T08:39:14.807Z,3.94
2019-03-12T08:42:04.805Z,3.97
2019-03-12T08:44:55.453Z,3.91
2019-03-12T08:47:51.357Z,4.01
2019-03-12T08:50:45.617Z,4.04
2019-03-12T08:53:35.277Z,4.07
2019-03-12T08:56:35.776Z,4.15
2019-03-12T08:59:43.478Z,4.05
2019-03-12T09:02:27.452Z,4.09
2019-03-12T09:05:26.067Z,4.14
2019-03-12T09:08:17.148Z,4.22
2019-03-12T09:11:03.597Z,4.34
2019-03-12T09:13:54.402Z,4.35
2019-03-12T09:16:39.575Z,4.40
2019-03-12T09:19:28.437Z,4.55
2019-03-12T09:22:21.521Z,4.60
2019-03-12T09:25:31.605Z,4.66
2019-03-12T09:28:42.908Z,4.63
2019-03-12T09:31:45.638Z,4.64
2019-03-12T09:34:38.600Z,4.75
2019-03-12T09:37:41.874Z,4.82
2019-03-12T09:40:42.040Z,4.80
2019-03-12T09:43:27.096Z,4.83
2019-03-12T09:46:26.477Z,4.85
2019-03-12T09:49:22.316Z,4.88
2019-03-12T09:52:21.193Z,4.92
2019-03-12T09:55:05.858Z,5.02
2019-03-12T09:57:51.941Z,5.09
2019-03-12T10:00:54.284Z,5.18
2019-03-12T10:03:57.114Z,5.26
2019-03-12T10:06:48.366Z,5.30
2019-03-12T10:09:40.870Z,5.33
2019-03-12T10:12:31.724Z,5.44
2019-03-12T10:15:43.043Z,5.53
2019-03-12T10:18:35.580Z,5.67
2019-03-12T10:21:38.021Z,5.62
2019-03-12T10:24:29.158Z,5.64
2019-03-12T10:27:40.402Z,5.75
2019-03-12T10:30:40.281Z,5.83
2019-03-12T10:33:28.238Z,5.83
2019-03-12T10:36:26.083Z,5.93
2019-03-12T10:40:15.448Z,6.01
2019-03-12T10:43:38.210Z,6.01
2019-03-12T10:46:43.577Z,6.12
2019-03-12T10:49:18.241Z,6.26
2019-03-12T10:51:54.270Z,6.24
2019-03-12T10:54:29.005Z,6.34
2019-03-12T10:57:03.541Z,6.45
2019-03-12T10:59:38.476Z,6.52
2019-03-12T11:02:14.874Z,6.68
2019-03-12T11:04:50.077Z,6.78
2019-03-12T11:07:25.998Z,6.81
2019-03-12T11:10:00.971Z,6.87
2019-03-12T11:12:34.339Z,6.82
2019-03-12T11:15:08.526Z,6.86
2019-03-12T11:17:49.432Z,6.81
2019-03-12T11:20:16.288Z,6.90
2019-03-12T11:22:49.720Z,6.92
2019-03-12T11:25:27.478Z,6.79
2019-03-12T11:27:57.185Z,6.49
2019-03-12T11:30:31.075Z,6.52
2019-03-12T11:33:06.722Z,6.55
2019-03-12T11:35:40.096Z,6.61
2019-03-12T11:38:13.770Z,6.87
2019-03-12T11:40:47.932Z,7.10
2019-03-12T11:43:22.479Z,7.55
2019-03-12T11:45:56.602Z,7.75
2019-03-12T11:48:29.966Z,7.71
2019-03-12T11:51:02.817Z,7.82
2019-03-12T11:53:36.306Z,8.56
2019-03-12T11:56:10.369Z,8.35
2019-03-12T11:58:44.088Z,8.07
2019-03-12T12:01:17.157Z,7.94
2019-03-12T12:03:51.226Z,8.01
2019-03-12T12:06:25.332Z,8.22
2019-03-12T12:08:58.945Z,8.20
2019-03-12T12:11:32.958Z,8.23
2019-03-12T12:14:07.039Z,8.06
2019-03-12T12:16:41.075Z,8.07
2019-03-12T12:19:15.110Z,7.95
2019-03-12T12:21:49.102Z,8.08
2019-03-12T12:24:22.470Z,8.29
2019-03-12T12:26:56.510Z,8.62
2019-03-12T12:29:30.190Z,8.85
2019-03-12T12:32:02.759Z,8.89
2019-03-12T12:34:35.161Z,8.96
2019-03-12T12:37:08.310Z,8.87
2019-03-12T12:39:41.063Z,8.62
2019-03-12T12:42:14.657Z,8.67
2019-03-12T12:44:48.182Z,8.69
2019-03-12T12:47:22.239Z,8.59
2019-03-12T12:50:05.502Z,8.58
2019-03-12T12:52:39.633Z,8.61
2019-03-12T12:55:13.818Z,9.21
2019-03-12T12:57:48.278Z,9.25
2019-03-12T13:00:24.050Z,9.72
2019-03-12T13:02:59.430Z,10.26
2019-03-12T13:05:33.076Z,11.07
2019-03-12T13:08:07.746Z,10.91
2019-03-12T13:10:42.301Z,10.91
2019-03-12T13:13:17.911Z,10.88
2019-03-12T13:15:51.918Z,11.13
2019-03-12T13:18:25.949Z,11.24
2019-03-12T13:21:01.397Z,11.26
2019-03-12T13:23:37.341Z,11.06
2019-03-12T13:26:11.834Z,10.93
2019-03-12T13:28:46.201Z,10.91
2019-03-12T13:31:20.800Z,10.68
2019-03-12T13:33:53.277Z,10.99
2019-03-12T13:36:29.099Z,11.45
2019-03-12T13:39:07.572Z,11.59
2019-03-12T13:41:42.558Z,11.75
2019-03-12T13:44:18.693Z,11.92
2019-03-12T13:46:52.120Z,12.56
2019-03-12T13:49:26.163Z,13.24
2019-03-12T13:52:01.125Z,13.96
2019-03-12T13:54:35.196Z,14.14
2019-03-12T13:57:11.920Z,14.66
2019-03-12T13:59:46.618Z,15.10
2019-03-12T14:02:22.919Z,14.92
2019-03-12T14:04:57.112Z,15.22
2019-03-12T14:07:29.739Z,15.61
2019-03-12T14:10:03.678Z,16.03
2019-03-12T14:12:37.633Z,15.72
2019-03-12T14:15:13.748Z,16.08
2019-03-12T14:17:46.832Z,16.13
2019-03-12T14:20:52.599Z,16.33
2019-03-12T14:23:38.557Z,16.60
2019-03-12T14:26:11.987Z,17.15
2019-03-12T14:28:44.443Z,17.72
2019-03-12T14:31:17.290Z,17.99
2019-03-12T14:33:51.387Z,17.85
2019-03-12T14:36:23.368Z,17.15
2019-03-12T14:38:55.988Z,16.70
2019-03-12T14:41:29.586Z,16.67
2019-03-12T14:44:03.173Z,16.89
2019-03-12T14:46:36.084Z,16.34
2019-03-12T14:49:10.453Z,16.38
2019-03-12T14:52:08.730Z,17.00
2019-03-12T14:54:42.608Z,16.94
2019-03-12T14:57:16.476Z,17.10
2019-03-12T14:59:49.414Z,17.28
2019-03-12T15:02:22.794Z,16.38
2019-03-12T15:04:55.079Z,15.34
2019-03-12T15:07:27.939Z,15.64
2019-03-12T15:10:00.441Z,15.72
2019-03-12T15:12:32.827Z,16.14
2019-03-12T15:15:06.233Z,16.20
2019-03-12T15:17:38.299Z,16.65
2019-03-12T15:20:11.350Z,16.65
2019-03-12T15:22:43.796Z,15.90
2019-03-12T15:25:16.784Z,15.47
2019-03-12T15:27:49.745Z,14.66
2019-03-12T15:30:22.047Z,14.26
2019-03-12T15:32:55.895Z,13.94
2019-03-12T15:35:30.129Z,13.57
2019-03-12T15:38:03.410Z,12.95
2019-03-12T15:40:37.123Z,12.96
2019-03-12T15:43:11.352Z,12.56
2019-03-12T15:45:45.157Z,12.31
2019-03-12T15:48:21.408Z,12.29
2019-03-12T15:50:54.204Z,11.91
2019-03-12T15:53:28.534Z,11.73
2019-03-12T15:56:02.720Z,11.60
2019-03-12T15:58:36.051Z,11.37
2019-03-12T16:01:10.268Z,11.27
2019-03-12T16:03:44.355Z,11.14
2019-03-12T16:06:18.583Z,10.99
2019-03-12T16:08:51.943Z,10.81
2019-03-12T16:11:25.572Z,10.73
2019-03-12T16:13:59.689Z,10.67
2019-03-12T16:16:33.875Z,10.62
2019-03-12T16:19:07.501Z,10.66
2019-03-12T16:21:41.323Z,10.60
2019-03-12T16:24:15.526Z,10.40
2019-03-12T16:26:50.167Z,10.21
2019-03-12T16:29:24.358Z,10.10
2019-03-12T16:31:58.192Z,9.95
2019-03-12T16:34:31.855Z,9.74
2019-03-12T16:37:05.579Z,9.63
2019-03-12T16:39:40.085Z,9.54
2019-03-12T16:42:14.730Z,9.40
2019-03-12T16:44:48.844Z,9.22
2019-03-12T16:47:22.248Z,9.10
2019-03-12T16:49:55.531Z,9.01
2019-03-12T16:52:28.849Z,8.93
2019-03-12T16:55:02.755Z,8.81
2019-03-12T16:57:39.561Z,8.72
2019-03-12T17:00:14.790Z,8.62
2019-03-12T17:02:48.579Z,8.56
2019-03-12T17:05:26.004Z,8.46
2019-03-12T17:07:58.626Z,8.40
2019-03-12T17:10:32.336Z,8.26
2019-03-12T17:13:06.053Z,8.18
2019-03-12T17:15:40.334Z,8.08
2019-03-12T17:18:13.606Z,7.90
2019-03-12T17:20:48.275Z,7.84
2019-03-12T17:23:21.959Z,7.76
2019-03-12T17:25:56.089Z,7.71
2019-03-12T17:28:29.908Z,7.68
2019-03-12T17:31:03.824Z,7.59
2019-03-12T17:33:37.925Z,7.47
2019-03-12T17:36:12.133Z,7.42
2019-03-12T17:38:47.270Z,7.37
2019-03-12T17:41:21.415Z,7.35
2019-03-12T17:43:57.780Z,7.28
2019-03-12T17:46:31.254Z,7.26
2019-03-12T17:49:05.189Z,7.24
2019-03-12T17:51:39.488Z,7.21
2019-03-12T17:54:11.564Z,7.16
2019-03-12T17:56:44.555Z,7.11
2019-03-12T17:59:17.116Z,7.05
2019-03-12T18:01:49.469Z,6.92
2019-03-12T18:04:22.883Z,6.85
2019-03-12T18:06:55.708Z,6.77
2019-03-12T18:09:29.136Z,6.71
2019-03-12T18:12:02.481Z,6.64
2019-03-12T18:14:34.988Z,6.61
2019-03-12T18:17:08.313Z,6.59
2019-03-12T18:19:41.235Z,6.54
2019-03-12T18:22:15.141Z,6.48
2019-03-12T18:24:48.091Z,6.43
2019-03-12T18:27:21.021Z,6.38
2019-03-12T18:29:54.090Z,6.36
2019-03-12T18:32:26.140Z,6.31
2019-03-12T18:34:58.687Z,6.31
2019-03-12T18:37:31.566Z,6.27
2019-03-12T18:40:04.623Z,6.23
2019-03-12T18:42:37.608Z,6.19
2019-03-12T18:45:13.241Z,6.18
2019-03-12T18:47:45.781Z,6.12
2019-03-12T18:50:20.350Z,6.10
2019-03-12T18:52:53.002Z,6.04
2019-03-12T18:55:56.626Z,6.01
2019-03-12T18:58:29.105Z,5.98
2019-03-12T19:01:04.817Z,5.98
2019-03-12T19:03:38.149Z,5.98
2019-03-12T19:06:11.522Z,5.97
2019-03-12T19:08:48.142Z,5.93
2019-03-12T19:11:18.951Z,5.87
2019-03-12T19:13:50.975Z,5.83
2019-03-12T19:16:24.186Z,5.81
2019-03-12T19:18:59.853Z,5.79
2019-03-12T19:21:33.146Z,5.76
2019-03-12T19:24:09.790Z,5.70
2019-03-12T19:26:42.735Z,5.65
2019-03-12T19:29:15.578Z,5.62
2019-03-12T19:32:06.707Z,5.62
2019-03-12T19:34:41.399Z,5.57
2019-03-12T19:37:14.436Z,5.55
2019-03-12T19:39:48.211Z,5.49
2019-03-12T19:42:21.143Z,5.45
2019-03-12T19:44:53.658Z,5.40
2019-03-12T19:47:26.848Z,5.36
2019-03-12T19:49:59.432Z,5.28
2019-03-12T19:52:32.855Z,5.24
2019-03-12T19:55:05.227Z,5.24
2019-03-12T19:57:38.785Z,5.23
2019-03-12T20:00:15.181Z,5.18
2019-03-12T20:02:49.811Z,5.17
2019-03-12T20:05:22.678Z,5.12
2019-03-12T20:07:55.630Z,5.08
2019-03-12T20:11:30.928Z,5.04
2019-03-12T20:15:13.505Z,4.99
2019-03-12T20:18:51.167Z,4.94
2019-03-12T20:22:22.747Z,4.91
2019-03-12T20:25:49.138Z,4.89
2019-03-12T20:29:20.630Z,4.86
2019-03-12T20:33:16.278Z,4.81
2019-03-12T20:36:49.555Z,4.80
2019-03-12T20:40:38.835Z,4.79
2019-03-12T20:44:15.451Z,4.75
2019-03-12T20:47:45.150Z,4.69
2019-03-12T20:51:43.010Z,4.64
2019-03-12T20:55:10.027Z,4.59
2019-03-12T20:59:10.566Z,4.57
2019-03-12T21:02:50.331Z,4.55
2019-03-12T21:06:42.377Z,4.53
2019-03-12T21:10:16.393Z,4.53
2019-03-12T21:13:51.402Z,4.53
2019-03-12T21:17:49.710Z,4.55
2019-03-12T21:21:17.101Z,4.52
2019-03-12T21:24:59.032Z,4.46
2019-03-12T21:28:42.366Z,4.48
2019-03-12T21:31:15.812Z,4.44
2019-03-12T21:33:48.235Z,4.45
2019-03-12T21:36:21.308Z,4.47
2019-03-12T21:38:54.805Z,4.47
2019-03-12T21:41:26.798Z,4.46
2019-03-12T21:44:01.747Z,4.45
2019-03-12T21:46:35.887Z,4.44
2019-03-12T21:49:09.840Z,4.41
2019-03-12T21:51:43.912Z,4.38
2019-03-12T21:54:17.530Z,4.37
2019-03-12T21:56:51.139Z,4.33
2019-03-12T21:59:24.971Z,4.32
2019-03-12T22:01:59.053Z,4.31
2019-03-12T22:04:32.858Z,4.32
2019-03-12T22:07:07.060Z,4.33
2019-03-12T22:09:41.195Z,4.34
2019-03-12T22:12:15.440Z,4.31
2019-03-12T22:14:49.301Z,4.32
2019-03-12T22:17:23.326Z,4.30
2019-03-12T22:19:57.448Z,4.31
2019-03-12T22:22:47.644Z,4.32
2019-03-12T22:25:22.282Z,4.34
2019-03-12T22:27:56.501Z,4.34
2019-03-12T22:30:29.843Z,4.33
2019-03-12T22:33:03.678Z,4.34
2019-03-12T22:35:37.380Z,4.37
2019-03-12T22:38:10.654Z,4.35
2019-03-12T22:40:44.488Z,4.36
2019-03-12T22:43:18.722Z,4.36
2019-03-12T22:45:52.089Z,4.34
2019-03-12T22:48:26.087Z,4.34
2019-03-12T22:50:59.832Z,4.31
2019-03-12T22:53:34.647Z,4.31
2019-03-12T22:56:08.494Z,4.32
2019-03-12T22:58:42.257Z,4.30
2019-03-12T23:01:16.064Z,4.28
2019-03-12T23:03:50.206Z,4.28
2019-03-12T23:06:23.905Z,4.28
2019-03-12T23:08:58.237Z,4.27
2019-03-12T23:11:31.459Z,4.28
2019-03-12T23:14:04.970Z,4.26
2019-03-12T23:16:38.820Z,4.25
2019-03-12T23:19:12.422Z,4.21
2019-03-12T23:21:45.721Z,4.21
2019-03-12T23:24:18.809Z,4.20
2019-03-12T23:26:52.306Z,4.17
2019-03-12T23:29:26.122Z,4.19
2019-03-12T23:31:58.939Z,4.18
2019-03-12T23:34:33.009Z,4.18
2019-03-12T23:37:06.504Z,4.16
2019-03-12T23:39:40.680Z,4.20
2019-03-12T23:42:15.561Z,4.22
2019-03-12T23:44:49.667Z,4.25
2019-03-12T23:47:22.777Z,4.26
2019-03-12T23:49:56.600Z,4.21
2019-03-12T23:52:31.071Z,4.19
2019-03-12T23:55:05.388Z,4.22
2019-03-12T23:57:38.441Z,4.21
